Time;durP1;ratioP1;P1;durP2;ratioP2;P2;SDS_P1;SDS_P2;PMS_P1;PMS_P2;Temp;Humidity;BMP_temperature;BMP_pressure;BME280_temperature;BME280_humidity;BME280_pressure;Samples;Min_cycle;Max_cycle;Signal;HPM_P1;HPM_P2
2022/01/19 00:01:20;;;;;;;38.83;19.58;;;4.30;99.90;;;;;;4908781;29;20382;-63
2022/01/19 00:03:46;;;;;;;38.40;19.92;;;4.40;99.90;;;;;;4927416;29;20047;-63
2022/01/19 00:06:12;;;;;;;40.95;18.23;;;4.40;99.90;;;;;;4926207;29;20043;-63
2022/01/19 00:08:38;;;;;;;37.38;18.80;;;4.40;99.90;;;;;;4923910;29;20422;-63
2022/01/19 00:11:04;;;;;;;42.72;15.60;;;4.30;99.90;;;;;;4927660;29;20047;-63
2022/01/19 00:13:30;;;;;;;35.72;16.85;;;4.30;99.90;;;;;;4928818;29;20056;-63
2022/01/19 00:15:56;;;;;;;41.78;16.70;;;4.30;99.90;;;;;;4924971;29;20047;-63
2022/01/19 00:18:23;;;;;;;40.83;17.38;;;4.30;99.90;;;;;;4904999;29;20044;-63
2022/01/19 00:20:51;;;;;;;45.95;19.88;;;4.30;99.90;;;;;;4926773;29;20059;-63
2022/01/19 00:23:18;;;;;;;30.10;12.38;;;4.30;99.90;;;;;;4927125;29;20043;-63
2022/01/19 00:25:46;;;;;;;58.03;21.45;;;4.30;99.90;;;;;;4911656;29;20051;-63
2022/01/19 00:28:13;;;;;;;54.55;22.40;;;4.30;99.90;;;;;;4927171;29;20042;-63
2022/01/19 00:30:39;;;;;;;41.00;16.77;;;4.30;99.90;;;;;;4908762;29;20056;-63
2022/01/19 00:33:06;;;;;;;40.90;18.13;;;4.30;99.90;;;;;;4923567;29;20566;-63
2022/01/19 00:35:35;;;;;;;45.78;18.02;;;4.30;99.90;;;;;;4906395;29;20103;-63
2022/01/19 00:38:01;;;;;;;37.05;17.15;;;4.30;99.90;;;;;;4910272;29;20051;-63
2022/01/19 00:40:28;;;;;;;38.60;18.23;;;4.30;99.90;;;;;;4924631;29;20039;-63
2022/01/19 00:42:53;;;;;;;26.95;13.05;;;4.30;99.90;;;;;;4927275;29;20054;-63
2022/01/19 00:45:19;;;;;;;38.97;16.83;;;4.20;99.90;;;;;;4926727;29;20036;-63
2022/01/19 00:47:45;;;;;;;38.60;15.40;;;4.20;99.90;;;;;;4911232;29;20261;-63
2022/01/19 00:50:15;;;;;;;44.70;18.40;;;4.20;99.90;;;;;;4910538;29;20130;-63
2022/01/19 00:52:41;;;;;;;41.25;17.75;;;4.10;99.90;;;;;;4922380;29;20052;-62
2022/01/19 00:55:09;;;;;;;40.30;18.13;;;4.10;99.90;;;;;;4910529;29;20107;-62
2022/01/19 00:57:35;;;;;;;44.75;17.30;;;4.20;99.90;;;;;;4922357;29;20071;-63
2022/01/19 01:00:03;;;;;;;35.13;17.77;;;4.20;99.90;;;;;;4927089;29;20590;-63
2022/01/19 01:02:31;;;;;;;43.85;18.50;;;4.10;99.90;;;;;;4926322;29;20126;-63
2022/01/19 01:04:56;;;;;;;43.05;18.75;;;4.20;99.90;;;;;;4912426;29;20102;-63
2022/01/19 01:07:22;;;;;;;51.80;21.77;;;4.20;99.90;;;;;;4929426;29;20495;-63
2022/01/19 01:09:48;;;;;;;47.38;19.65;;;4.10;99.90;;;;;;4929436;29;20522;-63
2022/01/19 01:12:21;;;;;;;43.55;18.92;;;4.10;99.90;;;;;;4910408;29;20051;-63
2022/01/19 01:20:17;;;;;;;20.00;8.88;;;4.10;99.90;;;;;;4929267;29;20051;-63
2022/01/19 01:22:43;;;;;;;62.13;24.20;;;4.10;99.90;;;;;;4927327;29;20047;-63
2022/01/19 01:25:09;;;;;;;52.47;23.17;;;4.10;99.90;;;;;;4929234;29;20626;-63
2022/01/19 01:27:35;;;;;;;52.20;21.92;;;4.10;99.90;;;;;;4928593;29;20040;-63
2022/01/19 01:30:01;;;;;;;43.78;15.23;;;4.10;99.90;;;;;;4928903;29;20048;-63
2022/01/19 01:32:27;;;;;;;47.33;19.52;;;4.10;99.90;;;;;;4911137;29;20055;-63
2022/01/19 01:34:53;;;;;;;69.85;25.45;;;4.20;99.90;;;;;;4928525;29;20051;-62
2022/01/19 01:37:19;;;;;;;57.67;22.98;;;4.10;99.90;;;;;;4911319;29;20138;-63
2022/01/19 01:39:46;;;;;;;59.47;24.17;;;4.10;99.90;;;;;;4928811;29;20421;-63
2022/01/19 01:42:18;;;;;;;53.38;22.58;;;4.10;99.90;;;;;;4911743;29;20476;-63
2022/01/19 01:44:47;;;;;;;66.72;27.20;;;4.20;99.90;;;;;;4929041;29;20406;-63
2022/01/19 01:47:15;;;;;;;71.68;29.75;;;4.20;99.90;;;;;;4927223;29;20074;-63
2022/01/19 01:55:10;;;;;;;69.20;27.05;;;4.20;99.90;;;;;;4928479;29;20518;-63
2022/01/19 01:57:36;;;;;;;63.83;23.25;;;4.20;99.90;;;;;;4895734;29;20051;-63
2022/01/19 02:00:05;;;;;;;76.13;26.77;;;4.20;99.90;;;;;;4928433;29;20491;-63
2022/01/19 02:02:31;;;;;;;70.80;28.17;;;4.20;99.90;;;;;;4928259;29;20115;-63
2022/01/19 02:04:56;;;;;;;83.63;31.00;;;4.20;99.90;;;;;;4928346;29;20126;-63
2022/01/19 02:07:47;;;;;;;78.45;28.85;;;4.20;99.90;;;;;;4911098;29;20039;-63
2022/01/19 02:24:02;;;;;;;67.38;26.40;;;4.20;99.90;;;;;;4930902;29;20063;-63
2022/01/19 02:26:58;;;;;;;81.80;26.30;;;4.30;99.90;;;;;;4914359;29;20126;-63
2022/01/19 02:36:35;;;;;;;68.70;25.05;;;4.20;99.90;;;;;;4930477;29;20098;-63
2022/01/19 02:40:17;;;;;;;67.80;23.83;;;4.30;99.90;;;;;;4931606;29;20083;-63
2022/01/19 02:50:40;;;;;;;59.25;22.15;;;4.30;99.90;;;;;;4931022;29;20052;-63
2022/01/19 02:53:06;;;;;;;72.97;24.65;;;4.20;99.90;;;;;;4931642;29;20685;-63
2022/01/19 02:55:34;;;;;;;49.90;20.67;;;4.30;99.90;;;;;;4931707;29;20126;-63
2022/01/19 02:58:00;;;;;;;45.17;19.42;;;4.20;99.90;;;;;;4908125;29;20047;-63
2022/01/19 03:08:47;;;;;;;41.33;16.50;;;4.30;99.90;;;;;;4931350;29;20123;-63
2022/01/19 03:11:16;;;;;;;51.72;16.42;;;4.20;99.90;;;;;;4918310;29;20126;-63
2022/01/19 03:13:47;;;;;;;57.38;21.63;;;4.20;99.90;;;;;;4931032;29;20502;-63
2022/01/19 03:16:13;;;;;;;49.97;17.83;;;4.30;99.90;;;;;;4930207;29;20371;-63
2022/01/19 03:18:39;;;;;;;61.78;19.48;;;4.20;99.90;;;;;;4929650;29;20058;-63
2022/01/19 03:21:06;;;;;;;52.72;21.35;;;4.30;99.90;;;;;;4914072;29;20039;-63
2022/01/19 03:23:32;;;;;;;61.53;21.45;;;4.30;99.90;;;;;;4929920;29;20391;-63
2022/01/19 03:25:58;;;;;;;44.63;16.17;;;4.30;99.90;;;;;;4931221;29;20035;-63
2022/01/19 03:28:24;;;;;;;55.33;19.85;;;4.30;99.90;;;;;;4930880;29;20075;-63
2022/01/19 03:30:50;;;;;;;54.40;19.60;;;4.30;99.90;;;;;;4931123;29;20090;-63
2022/01/19 03:33:17;;;;;;;59.60;19.23;;;4.30;99.90;;;;;;4908632;29;20040;-63
2022/01/19 03:35:43;;;;;;;64.47;20.52;;;4.30;99.90;;;;;;4921667;29;20052;-63
2022/01/19 03:38:10;;;;;;;59.63;19.67;;;4.30;99.90;;;;;;4930775;29;20048;-63
2022/01/19 03:40:36;;;;;;;53.47;19.05;;;4.30;99.90;;;;;;4930495;29;20044;-63
2022/01/19 03:43:05;;;;;;;55.60;22.08;;;4.30;99.90;;;;;;4930509;29;20047;-63
2022/01/19 03:45:33;;;;;;;48.88;20.35;;;4.30;99.90;;;;;;4930528;29;20047;-63
2022/01/19 03:48:15;;;;;;;55.78;18.30;;;4.30;99.90;;;;;;4913495;29;20107;-63
2022/01/19 03:50:41;;;;;;;56.50;22.42;;;4.30;99.90;;;;;;4930525;29;20047;-63
2022/01/19 03:53:06;;;;;;;59.15;21.23;;;4.30;99.90;;;;;;4912955;29;20042;-63
2022/01/19 03:55:32;;;;;;;60.95;21.38;;;4.30;99.90;;;;;;4913126;29;20063;-63
2022/01/19 03:57:58;;;;;;;49.08;20.83;;;4.30;99.90;;;;;;4930623;29;20055;-63
2022/01/19 04:00:23;;;;;;;48.50;19.42;;;4.30;99.90;;;;;;4929665;29;20067;-63
2022/01/19 04:02:49;;;;;;;62.90;22.52;;;4.40;99.90;;;;;;4930373;29;20130;-63
2022/01/19 04:05:22;;;;;;;68.47;23.88;;;4.40;99.90;;;;;;4930004;29;20071;-63
2022/01/19 04:07:48;;;;;;;36.42;15.65;;;4.40;99.90;;;;;;4912629;29;20569;-63
2022/01/19 04:10:14;;;;;;;58.90;21.83;;;4.40;99.90;;;;;;4930269;29;20052;-63
2022/01/19 04:15:09;;;;;;;59.50;24.25;;;4.50;99.90;;;;;;4930360;29;20055;-63
2022/01/19 04:17:37;;;;;;;38.15;13.43;;;4.40;99.90;;;;;;4894246;29;20116;-63
2022/01/19 04:20:03;;;;;;;42.53;18.58;;;4.40;99.90;;;;;;4930316;29;20087;-63
2022/01/19 04:22:29;;;;;;;61.05;22.65;;;4.40;99.90;;;;;;4929972;29;20499;-63
2022/01/19 04:24:54;;;;;;;59.55;25.30;;;4.40;99.90;;;;;;4929675;29;20044;-63
2022/01/19 04:29:58;;;;;;;52.17;22.05;;;4.40;99.90;;;;;;4928608;29;20047;-63
2022/01/19 04:32:32;;;;;;;64.68;23.48;;;4.40;99.90;;;;;;4912740;29;20577;-63
2022/01/19 04:35:02;;;;;;;65.15;23.30;;;4.40;99.90;;;;;;4928517;29;20063;-63
2022/01/19 04:37:49;;;;;;;62.35;25.58;;;4.40;99.90;;;;;;4912679;29;20122;-63
2022/01/19 05:13:24;;;;;;;60.97;26.40;;;4.30;99.90;;;;;;4929451;29;20062;-63
2022/01/19 05:15:33;;;;;;;52.40;22.40;;;4.40;99.90;;;;;;4927947;29;20035;-63
2022/01/19 05:17:59;;;;;;;63.00;25.38;;;4.40;99.90;;;;;;4929176;29;20490;-63
2022/01/19 05:20:25;;;;;;;62.92;26.02;;;4.30;99.90;;;;;;4929120;29;20075;-63
2022/01/19 05:22:51;;;;;;;61.17;25.58;;;4.40;99.90;;;;;;4926942;29;20451;-63
2022/01/19 05:25:16;;;;;;;53.00;21.05;;;4.30;99.90;;;;;;4928992;29;20040;-62
2022/01/19 05:27:42;;;;;;;59.03;23.63;;;4.40;99.90;;;;;;4928185;29;20071;-63
2022/01/19 05:30:08;;;;;;;70.88;28.80;;;4.40;99.90;;;;;;4929045;29;20044;-63
2022/01/19 05:32:34;;;;;;;69.68;27.15;;;4.30;99.90;;;;;;4929410;29;20331;-63
2022/01/19 05:35:00;;;;;;;74.43;27.80;;;4.40;99.90;;;;;;4911687;29;20150;-63
2022/01/19 05:37:25;;;;;;;57.42;24.52;;;4.40;99.90;;;;;;4928630;29;20566;-63
2022/01/19 05:39:51;;;;;;;53.70;26.23;;;4.40;99.90;;;;;;4928669;29;20056;-63
2022/01/19 05:42:17;;;;;;;56.55;26.45;;;4.40;99.90;;;;;;4928826;29;20078;-63
2022/01/19 05:44:45;;;;;;;57.95;24.10;;;4.40;99.90;;;;;;4910917;29;20064;-63
2022/01/19 05:47:12;;;;;;;63.85;27.27;;;4.40;99.90;;;;;;4928817;29;20047;-63
2022/01/19 05:49:39;;;;;;;63.05;26.77;;;4.30;99.90;;;;;;4929084;29;20336;-63
2022/01/19 05:52:06;;;;;;;61.97;26.05;;;4.40;99.90;;;;;;4928545;29;20062;-63
2022/01/19 05:54:33;;;;;;;56.83;26.52;;;4.30;99.90;;;;;;4928937;29;20439;-63
2022/01/19 05:56:59;;;;;;;53.17;24.48;;;4.30;99.90;;;;;;4909934;29;20123;-63
2022/01/19 05:59:25;;;;;;;45.97;19.33;;;4.40;99.90;;;;;;4930767;29;20182;-63
2022/01/19 06:01:51;;;;;;;62.58;28.17;;;4.30;99.90;;;;;;4934885;29;20481;-63
2022/01/19 06:04:17;;;;;;;61.53;27.08;;;4.30;99.90;;;;;;4917869;29;20036;-63
2022/01/19 06:06:43;;;;;;;52.60;26.73;;;4.30;99.90;;;;;;4917811;29;20496;-63
2022/01/19 06:09:21;;;;;;;58.83;25.00;;;4.30;99.90;;;;;;4934999;29;20044;-63
2022/01/19 06:11:47;;;;;;;59.50;24.35;;;4.30;99.90;;;;;;4901490;29;20094;-63
2022/01/19 06:14:13;;;;;;;65.50;26.88;;;4.30;99.90;;;;;;4935198;29;20048;-63
2022/01/19 06:16:40;;;;;;;63.38;28.35;;;4.30;99.90;;;;;;4933457;29;20103;-63
2022/01/19 06:19:06;;;;;;;58.30;26.05;;;4.30;99.90;;;;;;4934279;29;20052;-63
2022/01/19 06:21:32;;;;;;;56.95;26.85;;;4.30;99.90;;;;;;4921191;29;20044;-63
2022/01/19 06:23:58;;;;;;;57.35;20.60;;;4.30;99.90;;;;;;4934627;29;20051;-63
2022/01/19 06:26:24;;;;;;;60.67;27.25;;;4.30;99.90;;;;;;4934226;29;20388;-63
2022/01/19 06:28:51;;;;;;;56.70;26.85;;;4.30;99.90;;;;;;4917571;29;20051;-63
2022/01/19 06:31:17;;;;;;;59.03;28.20;;;4.30;99.90;;;;;;4917971;29;20043;-63
2022/01/19 06:33:43;;;;;;;55.80;25.40;;;4.30;99.90;;;;;;4901973;29;20049;-63
2022/01/19 06:36:09;;;;;;;62.03;28.20;;;4.30;99.90;;;;;;4933740;29;20083;-63
2022/01/19 06:38:34;;;;;;;56.67;28.08;;;4.30;99.90;;;;;;4901395;29;20058;-63
2022/01/19 06:41:00;;;;;;;55.00;26.05;;;4.30;99.90;;;;;;4934295;29;20059;-63
2022/01/19 06:43:26;;;;;;;60.63;27.33;;;4.30;99.90;;;;;;4917103;29;20071;-63
2022/01/19 06:45:54;;;;;;;51.40;24.15;;;4.30;99.90;;;;;;4934431;29;20047;-63
2022/01/19 06:48:20;;;;;;;53.28;25.70;;;4.30;99.90;;;;;;4934999;29;20051;-63
2022/01/19 06:50:45;;;;;;;62.13;27.63;;;4.20;99.90;;;;;;4935034;29;20059;-63
2022/01/19 06:53:11;;;;;;;60.70;24.85;;;4.30;99.90;;;;;;4934396;29;20048;-63
2022/01/19 06:55:37;;;;;;;58.00;28.05;;;4.30;99.90;;;;;;4934583;29;20047;-63
2022/01/19 06:58:03;;;;;;;54.65;27.02;;;4.30;99.90;;;;;;4927376;29;20645;-63
2022/01/19 07:00:28;;;;;;;63.42;28.90;;;4.30;99.90;;;;;;4916650;29;20044;-63
2022/01/19 07:02:54;;;;;;;51.45;24.73;;;4.30;99.90;;;;;;4917281;29;20051;-63
2022/01/19 07:05:20;;;;;;;52.05;26.02;;;4.30;99.90;;;;;;4934701;29;20040;-63
2022/01/19 07:07:46;;;;;;;53.55;24.33;;;4.30;99.90;;;;;;4934385;29;20072;-63
2022/01/19 07:10:12;;;;;;;54.42;26.65;;;4.20;99.90;;;;;;4914270;29;20052;-63
2022/01/19 07:12:38;;;;;;;58.90;27.02;;;4.30;99.90;;;;;;4931442;29;20134;-63
2022/01/19 07:15:06;;;;;;;55.05;26.80;;;4.30;99.90;;;;;;4931239;29;20387;-63
2022/01/19 07:17:32;;;;;;;51.13;26.40;;;4.30;99.90;;;;;;4931248;29;20083;-63
2022/01/19 07:19:57;;;;;;;54.53;26.83;;;4.30;99.90;;;;;;4929847;29;20163;-63
2022/01/19 07:22:23;;;;;;;63.13;28.23;;;4.30;99.90;;;;;;4912828;29;20056;-63
2022/01/19 07:24:49;;;;;;;60.92;27.05;;;4.30;99.90;;;;;;4907286;29;20040;-63
2022/01/19 07:27:15;;;;;;;63.28;28.67;;;4.30;99.90;;;;;;4912856;29;20044;-63
2022/01/19 07:29:41;;;;;;;56.22;27.25;;;4.30;99.90;;;;;;4925423;29;20047;-63
2022/01/19 07:32:07;;;;;;;61.58;27.92;;;4.30;99.90;;;;;;4921440;29;20052;-63
2022/01/19 07:34:33;;;;;;;59.45;28.42;;;4.30;99.90;;;;;;4912956;29;20055;-63
2022/01/19 07:37:04;;;;;;;55.17;25.23;;;4.30;99.90;;;;;;4912295;29;20063;-63
2022/01/19 07:39:30;;;;;;;58.70;29.23;;;4.30;99.90;;;;;;4925373;29;20040;-63
2022/01/19 07:41:56;;;;;;;60.20;29.50;;;4.30;99.90;;;;;;4918679;29;20044;-63
2022/01/19 07:44:22;;;;;;;56.58;28.73;;;4.30;99.90;;;;;;4916905;29;20056;-63
2022/01/19 07:46:48;;;;;;;63.08;30.10;;;4.30;99.90;;;;;;4893072;29;20051;-63
2022/01/19 07:49:15;;;;;;;57.15;29.20;;;4.30;99.90;;;;;;4928849;29;20052;-63
2022/01/19 07:51:41;;;;;;;68.55;29.50;;;4.30;99.90;;;;;;4897591;29;20052;-63
2022/01/19 07:54:06;;;;;;;60.47;28.67;;;4.30;99.90;;;;;;4902505;29;20529;-63
2022/01/19 07:56:32;;;;;;;62.08;28.50;;;4.40;99.90;;;;;;4912083;29;20460;-63
2022/01/19 07:58:58;;;;;;;65.05;27.92;;;4.40;99.90;;;;;;4914908;29;20471;-63
2022/01/19 08:01:23;;;;;;;61.38;29.20;;;4.40;99.90;;;;;;4910386;29;20047;-63
2022/01/19 08:03:49;;;;;;;66.43;30.13;;;4.40;99.90;;;;;;4925918;29;20077;-63
2022/01/19 08:06:15;;;;;;;67.53;29.88;;;4.40;99.90;;;;;;4910820;29;20040;-63
2022/01/19 08:08:40;;;;;;;65.97;30.13;;;4.40;99.90;;;;;;4928587;29;20032;-63
2022/01/19 08:11:06;;;;;;;63.05;29.17;;;4.30;99.90;;;;;;4911377;29;20110;-63
2022/01/19 08:13:32;;;;;;;56.92;26.35;;;4.30;99.90;;;;;;4914332;29;20196;-63
2022/01/19 08:15:58;;;;;;;52.78;25.60;;;4.30;99.90;;;;;;4924363;29;20523;-63
2022/01/19 08:18:23;;;;;;;52.38;28.23;;;4.40;99.90;;;;;;4917446;29;20099;-63
2022/01/19 08:20:49;;;;;;;65.47;30.08;;;4.30;99.90;;;;;;4893701;29;20058;-63
2022/01/19 08:23:15;;;;;;;64.00;28.40;;;4.30;99.90;;;;;;4917389;29;20070;-63
2022/01/19 08:25:41;;;;;;;64.70;31.70;;;4.30;99.90;;;;;;4917569;29;20067;-63
2022/01/19 08:28:06;;;;;;;59.45;27.08;;;4.30;99.90;;;;;;4917680;29;20451;-63
2022/01/19 08:30:32;;;;;;;70.60;32.60;;;4.30;99.90;;;;;;4917564;29;20083;-63
2022/01/19 08:32:58;;;;;;;65.47;32.38;;;4.30;99.90;;;;;;4881075;29;20435;-63
2022/01/19 08:35:24;;;;;;;53.00;22.88;;;4.40;99.90;;;;;;4918647;29;20047;-63
2022/01/19 08:37:49;;;;;;;45.97;21.83;;;4.40;99.90;;;;;;4913944;29;20139;-63
2022/01/19 08:40:15;;;;;;;52.33;23.83;;;4.40;99.90;;;;;;4912467;29;20443;-63
2022/01/19 08:42:41;;;;;;;62.90;29.20;;;4.30;99.90;;;;;;4924592;29;20039;-63
2022/01/19 08:45:09;;;;;;;53.85;21.95;;;4.30;99.90;;;;;;4919174;29;20537;-63
2022/01/19 08:47:40;;;;;;;58.70;28.88;;;4.40;99.90;;;;;;4928015;29;20039;-63
2022/01/19 08:50:09;;;;;;;55.58;27.20;;;4.40;99.90;;;;;;4925842;29;20042;-63
2022/01/19 08:52:35;;;;;;;56.77;27.27;;;4.40;99.90;;;;;;4927892;29;20480;-63
2022/01/19 08:55:01;;;;;;;58.33;28.83;;;4.40;99.90;;;;;;4926670;29;20051;-63
2022/01/19 08:57:27;;;;;;;56.17;24.55;;;4.40;99.90;;;;;;4927861;29;20039;-63
2022/01/19 08:59:53;;;;;;;59.85;29.48;;;4.40;99.90;;;;;;4919203;29;20135;-63
2022/01/19 09:02:19;;;;;;;58.40;26.83;;;4.40;99.90;;;;;;4923489;29;20063;-63
2022/01/19 09:04:46;;;;;;;50.30;22.67;;;4.40;99.90;;;;;;4910321;29;20486;-63
2022/01/19 09:07:12;;;;;;;36.10;14.70;;;4.40;99.90;;;;;;4924364;29;20398;-63
2022/01/19 09:09:37;;;;;;;54.08;27.42;;;4.40;99.90;;;;;;4924094;29;20051;-63
2022/01/19 09:12:03;;;;;;;61.10;28.27;;;4.50;99.90;;;;;;4910372;29;20047;-63
2022/01/19 09:14:31;;;;;;;50.60;27.25;;;4.50;99.90;;;;;;4927154;29;20448;-63
2022/01/19 09:16:57;;;;;;;54.60;24.85;;;4.50;99.90;;;;;;4927925;29;20048;-63
2022/01/19 09:19:24;;;;;;;55.85;26.42;;;4.50;99.90;;;;;;4908402;29;20187;-63
2022/01/19 09:21:50;;;;;;;49.05;23.05;;;4.50;99.90;;;;;;4925296;29;20087;-63
2022/01/19 09:24:17;;;;;;;45.90;22.38;;;4.60;99.90;;;;;;4922084;29;20380;-63
2022/01/19 09:26:43;;;;;;;49.92;21.77;;;4.60;99.90;;;;;;4908092;29;20075;-63
2022/01/19 09:29:09;;;;;;;58.92;26.33;;;4.60;99.90;;;;;;4927217;29;20036;-63
2022/01/19 09:31:36;;;;;;;55.67;25.73;;;4.70;99.90;;;;;;4923796;29;20047;-63
2022/01/19 09:34:13;;;;;;;35.85;19.60;;;4.70;99.90;;;;;;4922710;29;20107;-63
2022/01/19 09:36:44;;;;;;;33.47;17.05;;;4.70;99.90;;;;;;4921849;29;20399;-63
2022/01/19 09:39:13;;;;;;;43.72;21.98;;;4.70;99.90;;;;;;4922605;29;20153;-63
2022/01/19 09:41:40;;;;;;;59.45;28.55;;;4.70;99.90;;;;;;4920396;29;20056;-63
2022/01/19 09:44:07;;;;;;;60.38;28.23;;;4.80;99.90;;;;;;4925218;29;20044;-63
2022/01/19 09:46:34;;;;;;;53.28;27.10;;;4.80;99.90;;;;;;4924706;29;20052;-63
2022/01/19 09:49:01;;;;;;;41.78;19.83;;;4.80;99.90;;;;;;4926712;29;20054;-63
2022/01/19 09:51:28;;;;;;;58.38;27.27;;;4.90;99.90;;;;;;4908820;29;20055;-63
2022/01/19 09:53:54;;;;;;;57.17;26.27;;;4.90;99.90;;;;;;4923507;29;20082;-63
2022/01/19 09:56:20;;;;;;;56.20;26.77;;;5.00;99.90;;;;;;4912808;29;20052;-63
2022/01/19 09:58:47;;;;;;;56.17;25.08;;;5.00;99.90;;;;;;4925430;29;20096;-63
2022/01/19 10:01:18;;;;;;;56.17;26.42;;;5.10;99.90;;;;;;4926267;29;20043;-63
2022/01/19 10:03:45;;;;;;;59.10;28.60;;;5.10;99.90;;;;;;4924485;29;20044;-63
2022/01/19 10:06:13;;;;;;;43.95;19.88;;;5.10;99.90;;;;;;4927331;29;20043;-63
2022/01/19 10:08:42;;;;;;;50.78;23.80;;;5.10;99.90;;;;;;4918155;29;20047;-63
2022/01/19 10:17:01;;;;;;;54.38;26.52;;;5.00;99.90;;;;;;4917450;29;20059;-63
2022/01/19 10:19:42;;;;;;;41.95;20.83;;;5.00;99.90;;;;;;4923729;29;20447;-63
2022/01/19 10:22:16;;;;;;;46.83;23.55;;;5.00;99.90;;;;;;4926644;29;20566;-63
2022/01/19 10:24:55;;;;;;;45.30;21.98;;;4.90;99.90;;;;;;4922368;29;20526;-63
2022/01/19 10:27:33;;;;;;;50.10;25.55;;;5.00;99.90;;;;;;4923786;29;20480;-63
2022/01/19 10:30:02;;;;;;;51.40;24.20;;;4.90;99.90;;;;;;4925477;29;20403;-63
2022/01/19 10:32:30;;;;;;;49.10;26.27;;;4.90;99.90;;;;;;4906601;29;20578;-63
2022/01/19 10:34:56;;;;;;;54.50;25.83;;;4.90;99.90;;;;;;4922925;29;20379;-63
2022/01/19 10:37:28;;;;;;;52.00;27.80;;;5.00;99.90;;;;;;4919205;29;20832;-63
2022/01/19 10:39:57;;;;;;;49.67;24.02;;;4.90;99.90;;;;;;4924526;29;20051;-63
2022/01/19 10:42:27;;;;;;;57.85;25.85;;;4.90;99.90;;;;;;4923303;29;20047;-63
2022/01/19 10:44:57;;;;;;;44.97;21.33;;;4.90;99.90;;;;;;4923560;29;20082;-63
2022/01/19 10:47:53;;;;;;;48.53;22.55;;;4.90;99.90;;;;;;4925790;29;20054;-63
2022/01/19 10:50:29;;;;;;;51.75;26.35;;;4.80;99.90;;;;;;4906444;29;20104;-63
2022/01/19 10:52:57;;;;;;;47.17;24.13;;;4.80;99.90;;;;;;4928179;29;20372;-63
2022/01/19 10:55:23;;;;;;;43.90;21.20;;;4.80;99.90;;;;;;4925796;29;20047;-63
2022/01/19 10:57:50;;;;;;;54.78;27.75;;;4.80;99.90;;;;;;4926903;29;20047;-63
2022/01/19 11:00:22;;;;;;;37.85;17.25;;;4.80;99.90;;;;;;4921675;29;20454;-63
2022/01/19 11:02:51;;;;;;;54.70;27.55;;;4.80;99.90;;;;;;4913512;29;20451;-63
2022/01/19 11:05:18;;;;;;;53.50;26.00;;;4.80;99.90;;;;;;4923535;29;20103;-63
2022/01/19 11:07:44;;;;;;;59.03;27.20;;;4.80;99.90;;;;;;4908407;29;20040;-63
2022/01/19 11:10:18;;;;;;;39.78;17.55;;;4.80;99.90;;;;;;4926957;29;20094;-63
2022/01/19 11:12:49;;;;;;;52.72;26.33;;;4.80;99.90;;;;;;4927701;29;20051;-63
2022/01/19 11:15:19;;;;;;;53.45;23.38;;;4.80;99.90;;;;;;4911380;29;20586;-63
2022/01/19 11:17:48;;;;;;;;;;;4.80;99.90;;;;;;4906914;29;20376;-63
2022/01/19 11:20:18;;;;;;;54.83;27.83;;;4.80;99.90;;;;;;4927882;29;20707;-63
2022/01/19 11:22:56;;;;;;;49.28;26.88;;;4.80;99.90;;;;;;4927659;29;20716;-63
2022/01/19 11:25:33;;;;;;;51.92;27.02;;;4.90;99.90;;;;;;4927869;29;20628;-63
2022/01/19 11:28:00;;;;;;;57.08;28.60;;;4.90;99.90;;;;;;4926571;29;20044;-63
2022/01/19 11:30:32;;;;;;;53.10;28.45;;;4.90;99.90;;;;;;4924127;29;20048;-63
2022/01/19 11:33:25;;;;;;;55.65;27.65;;;4.90;99.90;;;;;;4910803;29;20419;-63
2022/01/19 11:36:03;;;;;;;52.17;22.50;;;4.90;99.90;;;;;;4911096;29;20131;-63
2022/01/19 11:38:32;;;;;;;60.88;25.83;;;4.90;99.90;;;;;;4922306;29;20075;-63
2022/01/19 11:41:18;;;;;;;59.17;28.05;;;4.90;99.90;;;;;;4922888;29;20065;-63
2022/01/19 11:43:56;;;;;;;52.60;26.27;;;4.90;99.90;;;;;;4920252;29;20079;-63
2022/01/19 11:46:43;;;;;;;53.95;28.02;;;4.90;99.90;;;;;;4920784;29;20051;-63
2022/01/19 11:49:12;;;;;;;43.55;23.50;;;5.00;99.90;;;;;;4921423;29;20050;-63
2022/01/19 11:51:43;;;;;;;40.22;19.80;;;5.00;99.90;;;;;;4920504;29;20048;-63
2022/01/19 11:54:23;;;;;;;46.03;20.40;;;5.00;99.90;;;;;;4916870;29;20048;-62
2022/01/19 11:56:58;;;;;;;36.55;18.45;;;5.10;99.90;;;;;;4919742;29;20062;-62
2022/01/19 11:59:26;;;;;;;44.10;22.70;;;5.20;99.90;;;;;;4926666;29;20044;-62
2022/01/19 12:01:53;;;;;;;44.17;20.50;;;5.20;99.90;;;;;;4904314;29;20059;-62
2022/01/19 12:04:22;;;;;;;44.70;25.27;;;5.20;99.90;;;;;;4916479;29;20055;-62
2022/01/19 12:06:49;;;;;;;31.25;17.10;;;5.30;99.90;;;;;;4919583;29;20052;-62
2022/01/19 12:09:16;;;;;;;52.72;24.17;;;5.40;99.90;;;;;;4922190;29;20075;-62
2022/01/19 12:11:51;;;;;;;29.20;14.88;;;5.40;99.90;;;;;;4929814;29;20149;-62
2022/01/19 12:19:28;;;;;;;30.33;15.00;;;5.50;99.90;;;;;;4923676;29;20062;-62
2022/01/19 12:21:55;;;;;;;55.38;27.52;;;5.50;99.90;;;;;;4926456;29;20507;-62
2022/01/19 12:24:29;;;;;;;75.38;26.85;;;5.40;99.90;;;;;;4907450;29;20054;-62
2022/01/19 12:27:06;;;;;;;51.10;27.52;;;5.40;99.90;;;;;;4927136;29;20052;-62
2022/01/19 12:29:38;;;;;;;29.48;12.75;;;5.40;99.90;;;;;;4925781;29;20083;-62
2022/01/19 12:32:08;;;;;;;63.42;30.67;;;5.40;99.90;;;;;;4927695;29;20485;-62
2022/01/19 12:34:53;;;;;;;;;;;5.30;99.90;;;;;;4926956;29;20059;-62
2022/01/19 12:37:25;;;;;;;41.97;21.33;;;5.30;99.90;;;;;;4926467;29;19923;-62
2022/01/19 12:39:51;;;;;;;61.42;30.33;;;5.30;99.90;;;;;;4899265;29;20538;-62
2022/01/19 12:42:24;;;;;;;33.72;14.73;;;5.20;99.90;;;;;;4913761;29;20047;-62
2022/01/19 12:44:57;;;;;;;60.55;28.13;;;5.30;99.90;;;;;;4893336;29;20100;-62
2022/01/19 12:47:28;;;;;;;42.40;17.88;;;5.30;99.90;;;;;;4917393;29;20051;-62
2022/01/19 12:50:17;;;;;;;55.13;27.38;;;5.30;99.90;;;;;;4923483;29;20059;-61
2022/01/19 12:52:49;;;;;;;47.22;24.05;;;5.30;99.90;;;;;;4884844;29;20056;-62
2022/01/19 12:55:24;;;;;;;45.70;22.58;;;5.30;99.90;;;;;;4924532;29;20095;-62
2022/01/19 12:57:52;;;;;;;41.08;19.50;;;5.30;99.90;;;;;;4926367;29;20055;-62
2022/01/19 13:00:21;;;;;;;54.25;22.17;;;5.30;99.90;;;;;;4924556;29;20142;-62
2022/01/19 13:02:47;;;;;;;58.70;23.90;;;5.30;99.90;;;;;;4926016;29;20140;-62
2022/01/19 13:05:18;;;;;;;52.65;25.58;;;5.40;99.90;;;;;;4925352;29;20515;-62
2022/01/19 13:07:51;;;;;;;57.80;23.90;;;5.40;99.90;;;;;;4915728;29;20056;-62
2022/01/19 13:15:47;;;;;;;53.17;24.20;;;5.40;99.90;;;;;;4919948;29;20399;-62
2022/01/19 13:18:31;;;;;;;52.47;20.75;;;5.40;99.90;;;;;;4929151;29;20466;-62
2022/01/19 13:21:05;;;;;;;49.42;23.85;;;5.50;99.90;;;;;;4928285;29;20050;-62
2022/01/19 13:23:52;;;;;;;36.13;17.70;;;5.50;99.90;;;;;;4925600;29;20044;-62
2022/01/19 13:26:18;;;;;;;48.97;22.45;;;5.50;99.90;;;;;;4901623;29;20048;-62
2022/01/19 13:28:44;;;;;;;63.80;28.13;;;5.50;99.90;;;;;;4920597;29;20395;-62
2022/01/19 13:31:17;;;;;;;33.00;15.05;;;5.50;99.90;;;;;;4920270;29;20051;-62
2022/01/19 13:33:53;;;;;;;47.08;22.90;;;5.50;99.90;;;;;;4910244;29;20491;-62
2022/01/19 13:36:34;;;;;;;50.00;22.42;;;5.60;99.90;;;;;;4921147;29;20067;-62
2022/01/19 13:39:02;;;;;;;28.30;14.07;;;5.60;99.90;;;;;;4917890;29;20114;-62
2022/01/19 13:41:27;;;;;;;32.72;16.23;;;5.60;99.90;;;;;;4913598;29;20040;-62
2022/01/19 13:44:04;;;;;;;60.30;25.73;;;5.60;99.90;;;;;;4924803;29;20039;-62
2022/01/19 13:46:32;;;;;;;30.13;15.32;;;5.60;99.90;;;;;;4918512;29;20047;-62
2022/01/19 13:49:02;;;;;;;38.88;17.83;;;5.60;99.90;;;;;;4914506;29;20119;-62
2022/01/19 13:51:30;;;;;;;32.03;13.13;;;5.60;99.90;;;;;;4915709;29;20050;-62
2022/01/19 13:54:01;;;;;;;52.80;24.58;;;5.60;99.90;;;;;;4905572;29;20130;-62
2022/01/19 13:56:33;;;;;;;35.92;14.57;;;5.60;99.90;;;;;;4926878;29;20071;-62
2022/01/19 13:59:13;;;;;;;34.50;14.73;;;5.60;99.90;;;;;;4916153;29;20498;-62
2022/01/19 14:02:01;;;;;;;26.80;14.15;;;5.60;99.90;;;;;;4916177;29;20043;-62
2022/01/19 14:04:30;;;;;;;44.33;18.92;;;5.60;99.90;;;;;;4921536;29;20092;-62
2022/01/19 14:07:22;;;;;;;37.40;17.70;;;5.60;99.90;;;;;;4916349;29;20091;-62
2022/01/19 14:09:49;;;;;;;58.75;26.02;;;5.60;99.90;;;;;;4904098;29;20423;-62
2022/01/19 14:12:18;;;;;;;41.33;18.83;;;5.60;99.90;;;;;;4922907;29;20051;-62
2022/01/19 14:14:55;;;;;;;51.03;22.13;;;5.60;99.90;;;;;;4904497;29;20044;-62
2022/01/19 14:17:26;;;;;;;45.80;23.23;;;5.60;99.90;;;;;;4905759;29;20047;-65
2022/01/19 14:19:53;;;;;;;36.20;16.13;;;5.50;99.90;;;;;;4928134;29;20084;-71
2022/01/19 14:22:21;;;;;;;34.17;16.00;;;5.50;99.90;;;;;;4913243;29;20114;-61
2022/01/19 14:24:55;;;;;;;21.50;10.82;;;5.50;99.90;;;;;;4926350;29;20487;-62
2022/01/19 14:27:24;;;;;;;69.50;29.70;;;5.50;99.90;;;;;;4928334;29;20141;-62
2022/01/19 14:30:09;;;;;;;36.10;17.50;;;5.50;99.90;;;;;;4928531;29;20048;-61